Milwaukee, Wisconsin
Traffic Map
Current Weather Conditions
Milwaukee, Wisconsin
Overcast Haze
Overcast
35°
Feels Like: 26°
Wind Chill: 26° Ceiling: 300
Heat Index: 35° Visibility: 1.5mi
Dew Point: 33° Wind: 15mph
Humidity: 92% Direction: 30° (NNE)
Pressure: 29.51in Gusts: 29mph
Raw Report DataKMKE 241652Z 03013G25KT 1 1/2SM BR OVC003 02/01 A2951 RMK AO2 PK WND 03027/1624 TWR VIS 1 3/4 RAE48 SLP001 P0000 T00170006
Traffic Incident Summary
Active as of:
Severity:
Category:
InformationThere was an issue retrieving the traffic information for this location. Please try a different location or try again shortly.
Advertisements
Track Severe Weather on mobile